sensor_id;sensor_type;location;lat;lon;timestamp;P1;durP1;ratioP1;P2;durP2;ratioP2
27543;SDS011;17996;51.056;3.656;2022-07-23T00:00:50;6.78;;;5.97;;
27543;SDS011;17996;51.056;3.656;2022-07-23T00:03:15;7.45;;;6.13;;
27543;SDS011;17996;51.056;3.656;2022-07-23T00:05:41;7.68;;;6.72;;
27543;SDS011;17996;51.056;3.656;2022-07-23T00:08:07;9.80;;;6.63;;
27543;SDS011;17996;51.056;3.656;2022-07-23T00:10:33;9.77;;;6.82;;
27543;SDS011;17996;51.056;3.656;2022-07-23T00:12:59;6.57;;;5.75;;
27543;SDS011;17996;51.056;3.656;2022-07-23T00:15:24;9.82;;;7.00;;
27543;SDS011;17996;51.056;3.656;2022-07-23T00:17:50;7.85;;;6.28;;
27543;SDS011;17996;51.056;3.656;2022-07-23T00:20:16;10.00;;;6.82;;
27543;SDS011;17996;51.056;3.656;2022-07-23T00:22:45;10.45;;;7.40;;
27543;SDS011;17996;51.056;3.656;2022-07-23T00:25:15;8.02;;;6.50;;
27543;SDS011;17996;51.056;3.656;2022-07-23T00:27:41;15.77;;;6.65;;
27543;SDS011;17996;51.056;3.656;2022-07-23T00:30:07;8.98;;;6.47;;
27543;SDS011;17996;51.056;3.656;2022-07-23T00:32:55;9.63;;;6.10;;
27543;SDS011;17996;51.056;3.656;2022-07-23T00:35:24;7.85;;;6.85;;
27543;SDS011;17996;51.056;3.656;2022-07-23T00:37:51;8.85;;;6.68;;
27543;SDS011;17996;51.056;3.656;2022-07-23T00:40:16;8.63;;;7.28;;
27543;SDS011;17996;51.056;3.656;2022-07-23T00:42:42;8.80;;;6.95;;
27543;SDS011;17996;51.056;3.656;2022-07-23T00:45:08;8.57;;;6.35;;
27543;SDS011;17996;51.056;3.656;2022-07-23T00:47:34;7.60;;;6.40;;
27543;SDS011;17996;51.056;3.656;2022-07-23T00:50:00;12.70;;;6.68;;
27543;SDS011;17996;51.056;3.656;2022-07-23T00:52:26;9.45;;;6.72;;
27543;SDS011;17996;51.056;3.656;2022-07-23T00:54:51;9.85;;;7.03;;
27543;SDS011;17996;51.056;3.656;2022-07-23T00:57:17;7.68;;;6.88;;
27543;SDS011;17996;51.056;3.656;2022-07-23T00:59:43;10.40;;;7.60;;
27543;SDS011;17996;51.056;3.656;2022-07-23T01:02:09;9.75;;;7.18;;
27543;SDS011;17996;51.056;3.656;2022-07-23T01:04:35;10.68;;;7.60;;
27543;SDS011;17996;51.056;3.656;2022-07-23T01:07:01;13.07;;;7.25;;
27543;SDS011;17996;51.056;3.656;2022-07-23T01:09:27;13.43;;;7.40;;
27543;SDS011;17996;51.056;3.656;2022-07-23T01:11:56;8.80;;;6.95;;
27543;SDS011;17996;51.056;3.656;2022-07-23T01:14:22;8.20;;;6.82;;
27543;SDS011;17996;51.056;3.656;2022-07-23T01:16:48;7.78;;;6.80;;
27543;SDS011;17996;51.056;3.656;2022-07-23T01:19:15;8.18;;;6.72;;
27543;SDS011;17996;51.056;3.656;2022-07-23T01:21:45;7.53;;;5.80;;
27543;SDS011;17996;51.056;3.656;2022-07-23T01:24:14;7.20;;;6.30;;
27543;SDS011;17996;51.056;3.656;2022-07-23T01:26:41;8.55;;;6.90;;
27543;SDS011;17996;51.056;3.656;2022-07-23T01:29:08;10.88;;;6.93;;
27543;SDS011;17996;51.056;3.656;2022-07-23T01:31:34;10.30;;;6.43;;
27543;SDS011;17996;51.056;3.656;2022-07-23T01:34:00;11.27;;;8.45;;
27543;SDS011;17996;51.056;3.656;2022-07-23T01:36:26;7.70;;;7.00;;
27543;SDS011;17996;51.056;3.656;2022-07-23T01:38:53;8.38;;;7.50;;
27543;SDS011;17996;51.056;3.656;2022-07-23T01:41:19;12.57;;;7.78;;
27543;SDS011;17996;51.056;3.656;2022-07-23T01:43:45;10.52;;;7.45;;
27543;SDS011;17996;51.056;3.656;2022-07-23T01:46:10;9.20;;;7.22;;
27543;SDS011;17996;51.056;3.656;2022-07-23T01:48:36;10.80;;;7.32;;
27543;SDS011;17996;51.056;3.656;2022-07-23T01:51:02;8.10;;;7.20;;
27543;SDS011;17996;51.056;3.656;2022-07-23T01:53:28;11.70;;;7.40;;
27543;SDS011;17996;51.056;3.656;2022-07-23T01:55:56;10.75;;;8.52;;
27543;SDS011;17996;51.056;3.656;2022-07-23T01:58:23;8.20;;;7.40;;
27543;SDS011;17996;51.056;3.656;2022-07-23T02:00:49;10.30;;;8.30;;
27543;SDS011;17996;51.056;3.656;2022-07-23T02:03:14;13.82;;;8.30;;
27543;SDS011;17996;51.056;3.656;2022-07-23T02:05:40;8.60;;;7.18;;
27543;SDS011;17996;51.056;3.656;2022-07-23T02:08:06;7.93;;;7.13;;
27543;SDS011;17996;51.056;3.656;2022-07-23T02:10:32;8.73;;;6.80;;
27543;SDS011;17996;51.056;3.656;2022-07-23T02:12:57;7.68;;;6.93;;
27543;SDS011;17996;51.056;3.656;2022-07-23T02:15:23;7.80;;;6.90;;
27543;SDS011;17996;51.056;3.656;2022-07-23T02:17:48;8.57;;;6.57;;
27543;SDS011;17996;51.056;3.656;2022-07-23T02:20:14;8.57;;;6.93;;
27543;SDS011;17996;51.056;3.656;2022-07-23T02:22:40;10.68;;;7.45;;
27543;SDS011;17996;51.056;3.656;2022-07-23T02:25:06;7.45;;;6.60;;
27543;SDS011;17996;51.056;3.656;2022-07-23T02:27:32;8.48;;;6.75;;
27543;SDS011;17996;51.056;3.656;2022-07-23T02:29:59;8.05;;;7.10;;
27543;SDS011;17996;51.056;3.656;2022-07-23T02:32:25;8.55;;;7.60;;
27543;SDS011;17996;51.056;3.656;2022-07-23T02:34:50;8.27;;;7.47;;
27543;SDS011;17996;51.056;3.656;2022-07-23T02:37:16;10.75;;;6.85;;
27543;SDS011;17996;51.056;3.656;2022-07-23T02:39:42;8.60;;;7.70;;
27543;SDS011;17996;51.056;3.656;2022-07-23T02:42:08;9.32;;;8.13;;
27543;SDS011;17996;51.056;3.656;2022-07-23T02:44:34;9.23;;;7.88;;
27543;SDS011;17996;51.056;3.656;2022-07-23T02:47:00;7.03;;;6.32;;
27543;SDS011;17996;51.056;3.656;2022-07-23T02:49:26;10.90;;;7.50;;
27543;SDS011;17996;51.056;3.656;2022-07-23T02:51:51;11.30;;;8.23;;
27543;SDS011;17996;51.056;3.656;2022-07-23T02:54:18;8.90;;;7.60;;
27543;SDS011;17996;51.056;3.656;2022-07-23T02:56:44;8.20;;;7.30;;
27543;SDS011;17996;51.056;3.656;2022-07-23T02:59:09;9.32;;;8.07;;
27543;SDS011;17996;51.056;3.656;2022-07-23T03:01:35;12.52;;;8.15;;
27543;SDS011;17996;51.056;3.656;2022-07-23T03:04:01;8.80;;;7.90;;
27543;SDS011;17996;51.056;3.656;2022-07-23T03:06:27;9.13;;;7.53;;
27543;SDS011;17996;51.056;3.656;2022-07-23T03:08:53;8.93;;;7.72;;
27543;SDS011;17996;51.056;3.656;2022-07-23T03:11:19;10.32;;;8.40;;
27543;SDS011;17996;51.056;3.656;2022-07-23T03:13:45;8.88;;;7.97;;
27543;SDS011;17996;51.056;3.656;2022-07-23T03:16:10;12.93;;;8.13;;
27543;SDS011;17996;51.056;3.656;2022-07-23T03:18:36;9.73;;;8.45;;
27543;SDS011;17996;51.056;3.656;2022-07-23T03:21:02;7.93;;;6.88;;
27543;SDS011;17996;51.056;3.656;2022-07-23T03:23:27;8.77;;;6.18;;
27543;SDS011;17996;51.056;3.656;2022-07-23T03:25:53;7.63;;;6.45;;
27543;SDS011;17996;51.056;3.656;2022-07-23T03:28:19;6.82;;;6.13;;
27543;SDS011;17996;51.056;3.656;2022-07-23T03:30:45;7.28;;;6.57;;
27543;SDS011;17996;51.056;3.656;2022-07-23T03:33:17;6.95;;;5.82;;
27543;SDS011;17996;51.056;3.656;2022-07-23T03:35:45;6.63;;;5.57;;
27543;SDS011;17996;51.056;3.656;2022-07-23T03:38:12;7.85;;;6.70;;
27543;SDS011;17996;51.056;3.656;2022-07-23T03:40:38;7.78;;;6.97;;
27543;SDS011;17996;51.056;3.656;2022-07-23T03:43:04;9.88;;;7.43;;
27543;SDS011;17996;51.056;3.656;2022-07-23T03:45:30;10.45;;;8.40;;
27543;SDS011;17996;51.056;3.656;2022-07-23T03:47:56;10.80;;;8.30;;
27543;SDS011;17996;51.056;3.656;2022-07-23T03:50:22;9.57;;;8.20;;
27543;SDS011;17996;51.056;3.656;2022-07-23T03:52:48;8.43;;;7.47;;
27543;SDS011;17996;51.056;3.656;2022-07-23T03:55:14;9.65;;;7.25;;
27543;SDS011;17996;51.056;3.656;2022-07-23T03:57:39;8.30;;;7.50;;
27543;SDS011;17996;51.056;3.656;2022-07-23T04:00:06;11.27;;;8.60;;
27543;SDS011;17996;51.056;3.656;2022-07-23T04:02:34;10.27;;;8.90;;
27543;SDS011;17996;51.056;3.656;2022-07-23T04:05:03;9.35;;;8.32;;
27543;SDS011;17996;51.056;3.656;2022-07-23T04:07:30;10.25;;;7.88;;
27543;SDS011;17996;51.056;3.656;2022-07-23T04:09:55;12.15;;;8.30;;
27543;SDS011;17996;51.056;3.656;2022-07-23T04:12:21;10.40;;;7.95;;
27543;SDS011;17996;51.056;3.656;2022-07-23T04:14:47;8.80;;;7.90;;
27543;SDS011;17996;51.056;3.656;2022-07-23T04:17:13;11.88;;;8.75;;
27543;SDS011;17996;51.056;3.656;2022-07-23T04:19:38;8.95;;;7.90;;
27543;SDS011;17996;51.056;3.656;2022-07-23T04:22:09;9.18;;;8.20;;
27543;SDS011;17996;51.056;3.656;2022-07-23T04:24:36;11.82;;;8.88;;
27543;SDS011;17996;51.056;3.656;2022-07-23T04:27:02;11.18;;;9.00;;
27543;SDS011;17996;51.056;3.656;2022-07-23T04:29:29;9.40;;;8.15;;
27543;SDS011;17996;51.056;3.656;2022-07-23T04:31:55;10.57;;;8.77;;
27543;SDS011;17996;51.056;3.656;2022-07-23T04:34:21;11.00;;;8.32;;
27543;SDS011;17996;51.056;3.656;2022-07-23T04:36:47;9.20;;;8.27;;
27543;SDS011;17996;51.056;3.656;2022-07-23T04:39:12;9.25;;;8.20;;
27543;SDS011;17996;51.056;3.656;2022-07-23T04:41:38;13.25;;;9.88;;
27543;SDS011;17996;51.056;3.656;2022-07-23T04:44:04;9.90;;;8.90;;
27543;SDS011;17996;51.056;3.656;2022-07-23T04:46:30;10.57;;;8.45;;
27543;SDS011;17996;51.056;3.656;2022-07-23T04:48:55;9.48;;;8.48;;
27543;SDS011;17996;51.056;3.656;2022-07-23T04:51:21;9.23;;;7.93;;
27543;SDS011;17996;51.056;3.656;2022-07-23T04:53:47;8.90;;;8.00;;
27543;SDS011;17996;51.056;3.656;2022-07-23T04:56:12;10.70;;;8.43;;
27543;SDS011;17996;51.056;3.656;2022-07-23T04:58:38;9.35;;;8.07;;
27543;SDS011;17996;51.056;3.656;2022-07-23T05:01:04;11.27;;;9.02;;
27543;SDS011;17996;51.056;3.656;2022-07-23T05:03:30;9.80;;;8.80;;
27543;SDS011;17996;51.056;3.656;2022-07-23T05:05:55;10.15;;;8.43;;
27543;SDS011;17996;51.056;3.656;2022-07-23T05:08:21;10.52;;;9.23;;
27543;SDS011;17996;51.056;3.656;2022-07-23T05:10:47;8.60;;;7.80;;
27543;SDS011;17996;51.056;3.656;2022-07-23T05:13:15;11.63;;;8.43;;
27543;SDS011;17996;51.056;3.656;2022-07-23T05:15:42;8.80;;;7.88;;
27543;SDS011;17996;51.056;3.656;2022-07-23T05:18:09;9.27;;;8.27;;
27543;SDS011;17996;51.056;3.656;2022-07-23T05:20:35;14.80;;;9.27;;
27543;SDS011;17996;51.056;3.656;2022-07-23T05:23:01;14.02;;;9.73;;
27543;SDS011;17996;51.056;3.656;2022-07-23T05:25:27;13.02;;;8.95;;
27543;SDS011;17996;51.056;3.656;2022-07-23T05:27:53;12.55;;;8.90;;
27543;SDS011;17996;51.056;3.656;2022-07-23T05:30:18;11.07;;;8.65;;
27543;SDS011;17996;51.056;3.656;2022-07-23T05:32:44;15.15;;;10.65;;
27543;SDS011;17996;51.056;3.656;2022-07-23T05:35:10;10.27;;;9.18;;
27543;SDS011;17996;51.056;3.656;2022-07-23T05:37:36;12.80;;;10.02;;
27543;SDS011;17996;51.056;3.656;2022-07-23T05:40:03;11.20;;;10.07;;
27543;SDS011;17996;51.056;3.656;2022-07-23T05:42:32;12.98;;;11.00;;
27543;SDS011;17996;51.056;3.656;2022-07-23T05:47:28;14.13;;;12.35;;
27543;SDS011;17996;51.056;3.656;2022-07-23T05:49:53;17.50;;;12.50;;
27543;SDS011;17996;51.056;3.656;2022-07-23T05:52:19;14.95;;;12.00;;
27543;SDS011;17996;51.056;3.656;2022-07-23T05:54:45;18.05;;;13.77;;
27543;SDS011;17996;51.056;3.656;2022-07-23T05:57:10;18.00;;;13.95;;
27543;SDS011;17996;51.056;3.656;2022-07-23T05:59:36;16.90;;;13.32;;
27543;SDS011;17996;51.056;3.656;2022-07-23T06:02:02;18.67;;;13.48;;
27543;SDS011;17996;51.056;3.656;2022-07-23T06:04:27;18.83;;;13.63;;
27543;SDS011;17996;51.056;3.656;2022-07-23T06:06:54;17.95;;;12.77;;
27543;SDS011;17996;51.056;3.656;2022-07-23T06:09:20;21.80;;;13.85;;
27543;SDS011;17996;51.056;3.656;2022-07-23T06:11:46;15.35;;;13.07;;
27543;SDS011;17996;51.056;3.656;2022-07-23T06:14:12;23.27;;;14.77;;
27543;SDS011;17996;51.056;3.656;2022-07-23T06:16:37;19.13;;;13.73;;
27543;SDS011;17996;51.056;3.656;2022-07-23T06:19:03;16.90;;;12.88;;
27543;SDS011;17996;51.056;3.656;2022-07-23T06:21:29;17.75;;;12.85;;
27543;SDS011;17996;51.056;3.656;2022-07-23T06:23:54;18.00;;;13.00;;
27543;SDS011;17996;51.056;3.656;2022-07-23T06:26:20;20.95;;;13.45;;
27543;SDS011;17996;51.056;3.656;2022-07-23T06:28:45;22.85;;;13.43;;
27543;SDS011;17996;51.056;3.656;2022-07-23T06:31:11;18.33;;;12.73;;
27543;SDS011;17996;51.056;3.656;2022-07-23T06:33:37;15.85;;;12.43;;
27543;SDS011;17996;51.056;3.656;2022-07-23T06:36:02;13.50;;;11.43;;
27543;SDS011;17996;51.056;3.656;2022-07-23T06:38:28;16.83;;;10.35;;
27543;SDS011;17996;51.056;3.656;2022-07-23T06:40:54;13.90;;;10.90;;
27543;SDS011;17996;51.056;3.656;2022-07-23T06:43:19;16.02;;;11.32;;
27543;SDS011;17996;51.056;3.656;2022-07-23T06:45:45;21.23;;;11.18;;
27543;SDS011;17996;51.056;3.656;2022-07-23T06:48:11;16.15;;;11.52;;
27543;SDS011;17996;51.056;3.656;2022-07-23T06:50:36;17.35;;;10.45;;
27543;SDS011;17996;51.056;3.656;2022-07-23T06:53:02;18.30;;;11.18;;
27543;SDS011;17996;51.056;3.656;2022-07-23T06:55:28;13.75;;;11.18;;
27543;SDS011;17996;51.056;3.656;2022-07-23T06:57:53;15.98;;;10.00;;
27543;SDS011;17996;51.056;3.656;2022-07-23T07:00:19;10.32;;;9.23;;
27543;SDS011;17996;51.056;3.656;2022-07-23T07:02:45;14.40;;;10.95;;
27543;SDS011;17996;51.056;3.656;2022-07-23T07:05:10;13.05;;;10.02;;
27543;SDS011;17996;51.056;3.656;2022-07-23T07:07:36;13.98;;;9.73;;
27543;SDS011;17996;51.056;3.656;2022-07-23T07:10:05;17.92;;;10.45;;
27543;SDS011;17996;51.056;3.656;2022-07-23T07:12:31;16.58;;;9.35;;
27543;SDS011;17996;51.056;3.656;2022-07-23T07:14:57;13.40;;;10.23;;
27543;SDS011;17996;51.056;3.656;2022-07-23T07:17:23;19.88;;;9.82;;
27543;SDS011;17996;51.056;3.656;2022-07-23T07:19:48;15.93;;;11.05;;
27543;SDS011;17996;51.056;3.656;2022-07-23T07:22:14;20.17;;;10.50;;
27543;SDS011;17996;51.056;3.656;2022-07-23T07:24:40;18.50;;;10.20;;
27543;SDS011;17996;51.056;3.656;2022-07-23T07:27:05;11.68;;;8.18;;
27543;SDS011;17996;51.056;3.656;2022-07-23T07:29:31;15.65;;;10.18;;
27543;SDS011;17996;51.056;3.656;2022-07-23T07:31:57;21.42;;;8.70;;
27543;SDS011;17996;51.056;3.656;2022-07-23T07:34:22;13.75;;;8.50;;
27543;SDS011;17996;51.056;3.656;2022-07-23T07:36:49;11.13;;;8.95;;
27543;SDS011;17996;51.056;3.656;2022-07-23T07:39:15;16.95;;;11.07;;
27543;SDS011;17996;51.056;3.656;2022-07-23T07:41:40;12.45;;;9.68;;
27543;SDS011;17996;51.056;3.656;2022-07-23T07:44:06;14.45;;;8.75;;
27543;SDS011;17996;51.056;3.656;2022-07-23T07:46:32;15.65;;;9.65;;
27543;SDS011;17996;51.056;3.656;2022-07-23T07:48:57;13.75;;;7.05;;
27543;SDS011;17996;51.056;3.656;2022-07-23T07:51:23;14.02;;;8.23;;
27543;SDS011;17996;51.056;3.656;2022-07-23T07:53:49;14.25;;;8.57;;
27543;SDS011;17996;51.056;3.656;2022-07-23T07:56:14;13.48;;;10.00;;
27543;SDS011;17996;51.056;3.656;2022-07-23T07:58:40;12.68;;;8.73;;
27543;SDS011;17996;51.056;3.656;2022-07-23T08:01:06;8.68;;;7.20;;
27543;SDS011;17996;51.056;3.656;2022-07-23T08:03:31;8.43;;;5.53;;
27543;SDS011;17996;51.056;3.656;2022-07-23T08:05:57;13.60;;;8.52;;
27543;SDS011;17996;51.056;3.656;2022-07-23T08:08:23;11.40;;;8.98;;
27543;SDS011;17996;51.056;3.656;2022-07-23T08:10:50;16.08;;;9.40;;
27543;SDS011;17996;51.056;3.656;2022-07-23T08:13:15;19.88;;;9.68;;
27543;SDS011;17996;51.056;3.656;2022-07-23T08:15:42;16.33;;;8.70;;
27543;SDS011;17996;51.056;3.656;2022-07-23T08:18:09;12.50;;;8.90;;
27543;SDS011;17996;51.056;3.656;2022-07-23T08:20:35;13.80;;;8.88;;
27543;SDS011;17996;51.056;3.656;2022-07-23T08:23:05;23.10;;;9.27;;
27543;SDS011;17996;51.056;3.656;2022-07-23T08:25:33;13.85;;;8.70;;
27543;SDS011;17996;51.056;3.656;2022-07-23T08:28:01;14.05;;;8.27;;
27543;SDS011;17996;51.056;3.656;2022-07-23T08:30:28;13.93;;;8.70;;
27543;SDS011;17996;51.056;3.656;2022-07-23T08:32:58;9.85;;;7.43;;
27543;SDS011;17996;51.056;3.656;2022-07-23T08:35:35;9.00;;;7.68;;
27543;SDS011;17996;51.056;3.656;2022-07-23T08:38:13;10.95;;;8.02;;
27543;SDS011;17996;51.056;3.656;2022-07-23T08:40:41;14.43;;;9.10;;
27543;SDS011;17996;51.056;3.656;2022-07-23T08:43:10;10.82;;;8.50;;
27543;SDS011;17996;51.056;3.656;2022-07-23T08:45:38;15.88;;;9.27;;
27543;SDS011;17996;51.056;3.656;2022-07-23T08:48:11;13.67;;;9.00;;
27543;SDS011;17996;51.056;3.656;2022-07-23T08:50:41;14.52;;;8.90;;
27543;SDS011;17996;51.056;3.656;2022-07-23T08:53:08;12.73;;;7.35;;
27543;SDS011;17996;51.056;3.656;2022-07-23T08:55:34;11.32;;;7.15;;
27543;SDS011;17996;51.056;3.656;2022-07-23T08:58:00;16.67;;;9.02;;
27543;SDS011;17996;51.056;3.656;2022-07-23T09:00:26;14.38;;;8.07;;
27543;SDS011;17996;51.056;3.656;2022-07-23T09:02:51;12.43;;;9.52;;
27543;SDS011;17996;51.056;3.656;2022-07-23T09:05:17;15.38;;;8.10;;
27543;SDS011;17996;51.056;3.656;2022-07-23T09:10:29;13.13;;;7.65;;
27543;SDS011;17996;51.056;3.656;2022-07-23T09:12:55;12.85;;;8.02;;
27543;SDS011;17996;51.056;3.656;2022-07-23T09:15:20;18.10;;;7.78;;
27543;SDS011;17996;51.056;3.656;2022-07-23T09:17:46;9.27;;;7.40;;
27543;SDS011;17996;51.056;3.656;2022-07-23T09:20:13;14.68;;;7.00;;
27543;SDS011;17996;51.056;3.656;2022-07-23T09:22:44;9.00;;;7.00;;
27543;SDS011;17996;51.056;3.656;2022-07-23T09:25:12;11.93;;;7.07;;
27543;SDS011;17996;51.056;3.656;2022-07-23T09:30:13;11.13;;;6.28;;
27543;SDS011;17996;51.056;3.656;2022-07-23T09:32:39;9.50;;;6.00;;
27543;SDS011;17996;51.056;3.656;2022-07-23T09:35:06;9.38;;;5.93;;
27543;SDS011;17996;51.056;3.656;2022-07-23T09:37:31;11.00;;;5.68;;
27543;SDS011;17996;51.056;3.656;2022-07-23T09:40:04;11.95;;;6.22;;
27543;SDS011;17996;51.056;3.656;2022-07-23T09:42:32;11.10;;;6.47;;
27543;SDS011;17996;51.056;3.656;2022-07-23T09:44:58;10.00;;;6.00;;
27543;SDS011;17996;51.056;3.656;2022-07-23T09:47:26;9.60;;;5.55;;
27543;SDS011;17996;51.056;3.656;2022-07-23T09:52:34;11.13;;;5.68;;
27543;SDS011;17996;51.056;3.656;2022-07-23T09:55:06;11.93;;;6.63;;
27543;SDS011;17996;51.056;3.656;2022-07-23T09:57:33;8.85;;;6.07;;
27543;SDS011;17996;51.056;3.656;2022-07-23T10:00:00;8.00;;;5.18;;
27543;SDS011;17996;51.056;3.656;2022-07-23T10:02:29;11.07;;;5.43;;
27543;SDS011;17996;51.056;3.656;2022-07-23T10:04:57;9.45;;;5.68;;
27543;SDS011;17996;51.056;3.656;2022-07-23T10:07:25;10.50;;;5.32;;
27543;SDS011;17996;51.056;3.656;2022-07-23T10:09:52;10.10;;;6.18;;
27543;SDS011;17996;51.056;3.656;2022-07-23T10:12:18;9.27;;;6.40;;
27543;SDS011;17996;51.056;3.656;2022-07-23T10:14:50;8.40;;;5.80;;
27543;SDS011;17996;51.056;3.656;2022-07-23T10:17:16;12.52;;;7.10;;
27543;SDS011;17996;51.056;3.656;2022-07-23T10:19:43;15.82;;;6.03;;
27543;SDS011;17996;51.056;3.656;2022-07-23T10:22:11;8.38;;;5.78;;
27543;SDS011;17996;51.056;3.656;2022-07-23T10:38:11;11.35;;;5.53;;
27543;SDS011;17996;51.056;3.656;2022-07-23T10:41:03;9.68;;;5.50;;
27543;SDS011;17996;51.056;3.656;2022-07-23T10:43:30;8.75;;;5.55;;
27543;SDS011;17996;51.056;3.656;2022-07-23T10:45:56;7.03;;;5.22;;
27543;SDS011;17996;51.056;3.656;2022-07-23T10:49:23;11.60;;;4.97;;
27543;SDS011;17996;51.056;3.656;2022-07-23T10:54:51;10.70;;;5.20;;
27543;SDS011;17996;51.056;3.656;2022-07-23T10:57:25;8.90;;;4.65;;
27543;SDS011;17996;51.056;3.656;2022-07-23T11:02:30;5.72;;;4.40;;
27543;SDS011;17996;51.056;3.656;2022-07-23T11:05:01;12.93;;;4.57;;
27543;SDS011;17996;51.056;3.656;2022-07-23T11:07:34;9.50;;;5.20;;
27543;SDS011;17996;51.056;3.656;2022-07-23T11:10:02;6.78;;;4.35;;
27543;SDS011;17996;51.056;3.656;2022-07-23T11:15:07;5.88;;;4.20;;
27543;SDS011;17996;51.056;3.656;2022-07-23T11:17:38;4.55;;;3.80;;
27543;SDS011;17996;51.056;3.656;2022-07-23T11:25:10;7.55;;;3.88;;
27543;SDS011;17996;51.056;3.656;2022-07-23T11:27:40;6.10;;;4.18;;
27543;SDS011;17996;51.056;3.656;2022-07-23T11:30:11;9.18;;;4.15;;
27543;SDS011;17996;51.056;3.656;2022-07-23T11:35:34;6.68;;;3.67;;
27543;SDS011;17996;51.056;3.656;2022-07-23T11:40:38;4.30;;;2.95;;
27543;SDS011;17996;51.056;3.656;2022-07-23T11:43:07;5.57;;;3.58;;
27543;SDS011;17996;51.056;3.656;2022-07-23T11:45:41;3.65;;;3.08;;
27543;SDS011;17996;51.056;3.656;2022-07-23T11:48:09;5.00;;;3.78;;
27543;SDS011;17996;51.056;3.656;2022-07-23T11:50:41;18.83;;;3.63;;
27543;SDS011;17996;51.056;3.656;2022-07-23T11:53:07;8.15;;;3.38;;
27543;SDS011;17996;51.056;3.656;2022-07-23T11:55:33;4.93;;;3.40;;
27543;SDS011;17996;51.056;3.656;2022-07-23T11:57:59;6.85;;;3.42;;
27543;SDS011;17996;51.056;3.656;2022-07-23T12:00:26;4.57;;;3.28;;
27543;SDS011;17996;51.056;3.656;2022-07-23T12:02:59;4.82;;;3.40;;
27543;SDS011;17996;51.056;3.656;2022-07-23T12:05:36;7.38;;;3.90;;
27543;SDS011;17996;51.056;3.656;2022-07-23T12:08:04;6.65;;;3.40;;
27543;SDS011;17996;51.056;3.656;2022-07-23T12:10:35;5.40;;;2.97;;
27543;SDS011;17996;51.056;3.656;2022-07-23T12:13:03;5.10;;;3.38;;
27543;SDS011;17996;51.056;3.656;2022-07-23T12:15:35;8.38;;;3.08;;
27543;SDS011;17996;51.056;3.656;2022-07-23T12:18:04;7.75;;;3.65;;
27543;SDS011;17996;51.056;3.656;2022-07-23T12:20:32;7.75;;;3.50;;
27543;SDS011;17996;51.056;3.656;2022-07-23T12:23:01;5.45;;;3.45;;
27543;SDS011;17996;51.056;3.656;2022-07-23T12:25:31;10.07;;;3.50;;
27543;SDS011;17996;51.056;3.656;2022-07-23T12:28:09;6.55;;;3.20;;
27543;SDS011;17996;51.056;3.656;2022-07-23T12:33:05;8.70;;;3.50;;
27543;SDS011;17996;51.056;3.656;2022-07-23T12:35:34;6.75;;;3.72;;
27543;SDS011;17996;51.056;3.656;2022-07-23T12:38:07;9.35;;;3.70;;
27543;SDS011;17996;51.056;3.656;2022-07-23T12:43:32;5.80;;;4.15;;
27543;SDS011;17996;51.056;3.656;2022-07-23T12:51:20;8.77;;;4.10;;
27543;SDS011;17996;51.056;3.656;2022-07-23T12:53:52;8.40;;;3.92;;
27543;SDS011;17996;51.056;3.656;2022-07-23T12:56:27;9.40;;;4.13;;
27543;SDS011;17996;51.056;3.656;2022-07-23T12:58:56;9.77;;;5.15;;
27543;SDS011;17996;51.056;3.656;2022-07-23T13:01:39;8.80;;;3.45;;
27543;SDS011;17996;51.056;3.656;2022-07-23T13:04:17;6.70;;;4.47;;
27543;SDS011;17996;51.056;3.656;2022-07-23T13:06:46;6.63;;;4.32;;
27543;SDS011;17996;51.056;3.656;2022-07-23T13:09:19;10.40;;;4.13;;
27543;SDS011;17996;51.056;3.656;2022-07-23T13:11:46;5.07;;;4.32;;
27543;SDS011;17996;51.056;3.656;2022-07-23T13:14:12;6.35;;;4.97;;
27543;SDS011;17996;51.056;3.656;2022-07-23T13:16:39;12.05;;;5.43;;
27543;SDS011;17996;51.056;3.656;2022-07-23T13:19:05;13.05;;;4.43;;
27543;SDS011;17996;51.056;3.656;2022-07-23T13:21:31;10.02;;;4.55;;
27543;SDS011;17996;51.056;3.656;2022-07-23T13:23:57;6.38;;;4.78;;
27543;SDS011;17996;51.056;3.656;2022-07-23T13:26:23;7.10;;;5.28;;
27543;SDS011;17996;51.056;3.656;2022-07-23T13:28:50;11.32;;;5.68;;
27543;SDS011;17996;51.056;3.656;2022-07-23T13:31:15;11.55;;;5.40;;
27543;SDS011;17996;51.056;3.656;2022-07-23T13:33:41;10.73;;;4.82;;
27543;SDS011;17996;51.056;3.656;2022-07-23T13:36:08;8.13;;;4.50;;
27543;SDS011;17996;51.056;3.656;2022-07-23T13:38:34;10.82;;;4.47;;
27543;SDS011;17996;51.056;3.656;2022-07-23T13:41:00;8.65;;;5.18;;
27543;SDS011;17996;51.056;3.656;2022-07-23T13:43:28;6.32;;;4.63;;
27543;SDS011;17996;51.056;3.656;2022-07-23T13:45:54;8.00;;;4.68;;
27543;SDS011;17996;51.056;3.656;2022-07-23T13:48:20;9.05;;;5.75;;
27543;SDS011;17996;51.056;3.656;2022-07-23T13:50:46;6.85;;;4.85;;
27543;SDS011;17996;51.056;3.656;2022-07-23T13:53:13;11.95;;;4.85;;
27543;SDS011;17996;51.056;3.656;2022-07-23T13:55:42;8.50;;;4.65;;
27543;SDS011;17996;51.056;3.656;2022-07-23T13:58:09;8.65;;;4.75;;
27543;SDS011;17996;51.056;3.656;2022-07-23T14:00:36;7.40;;;4.90;;
27543;SDS011;17996;51.056;3.656;2022-07-23T14:03:04;6.60;;;4.05;;
27543;SDS011;17996;51.056;3.656;2022-07-23T14:05:30;7.80;;;4.32;;
27543;SDS011;17996;51.056;3.656;2022-07-23T14:07:56;6.97;;;3.50;;
27543;SDS011;17996;51.056;3.656;2022-07-23T14:10:22;6.68;;;5.05;;
27543;SDS011;17996;51.056;3.656;2022-07-23T14:12:48;7.70;;;4.43;;
27543;SDS011;17996;51.056;3.656;2022-07-23T14:15:16;10.48;;;4.68;;
27543;SDS011;17996;51.056;3.656;2022-07-23T14:17:43;9.82;;;4.57;;
27543;SDS011;17996;51.056;3.656;2022-07-23T14:20:10;7.40;;;4.63;;
27543;SDS011;17996;51.056;3.656;2022-07-23T14:22:37;8.57;;;5.45;;
27543;SDS011;17996;51.056;3.656;2022-07-23T14:25:03;6.53;;;4.65;;
27543;SDS011;17996;51.056;3.656;2022-07-23T14:27:31;10.13;;;5.90;;
27543;SDS011;17996;51.056;3.656;2022-07-23T14:29:57;10.95;;;5.20;;
27543;SDS011;17996;51.056;3.656;2022-07-23T14:32:23;10.68;;;4.97;;
27543;SDS011;17996;51.056;3.656;2022-07-23T14:34:49;7.05;;;4.80;;
27543;SDS011;17996;51.056;3.656;2022-07-23T14:37:15;5.32;;;3.80;;
27543;SDS011;17996;51.056;3.656;2022-07-23T14:39:42;9.07;;;5.18;;
27543;SDS011;17996;51.056;3.656;2022-07-23T14:42:08;5.65;;;4.03;;
27543;SDS011;17996;51.056;3.656;2022-07-23T14:44:35;5.18;;;3.97;;
27543;SDS011;17996;51.056;3.656;2022-07-23T14:47:01;9.80;;;6.50;;
27543;SDS011;17996;51.056;3.656;2022-07-23T14:49:29;7.28;;;5.07;;
27543;SDS011;17996;51.056;3.656;2022-07-23T14:51:55;9.20;;;5.00;;
27543;SDS011;17996;51.056;3.656;2022-07-23T14:54:21;7.13;;;5.32;;
27543;SDS011;17996;51.056;3.656;2022-07-23T14:56:47;10.52;;;5.72;;
27543;SDS011;17996;51.056;3.656;2022-07-23T14:59:13;7.72;;;4.72;;
27543;SDS011;17996;51.056;3.656;2022-07-23T15:01:39;8.15;;;5.93;;
27543;SDS011;17996;51.056;3.656;2022-07-23T15:04:05;9.75;;;6.60;;
27543;SDS011;17996;51.056;3.656;2022-07-23T15:06:32;8.30;;;5.80;;
27543;SDS011;17996;51.056;3.656;2022-07-23T15:08:58;9.10;;;6.30;;
27543;SDS011;17996;51.056;3.656;2022-07-23T15:11:25;6.97;;;5.40;;
27543;SDS011;17996;51.056;3.656;2022-07-23T15:13:51;7.45;;;5.57;;
27543;SDS011;17996;51.056;3.656;2022-07-23T15:16:17;8.15;;;5.55;;
27543;SDS011;17996;51.056;3.656;2022-07-23T15:18:43;10.30;;;5.60;;
27543;SDS011;17996;51.056;3.656;2022-07-23T15:21:09;7.55;;;5.95;;
27543;SDS011;17996;51.056;3.656;2022-07-23T15:23:34;6.50;;;5.80;;
27543;SDS011;17996;51.056;3.656;2022-07-23T15:26:01;8.45;;;5.78;;
27543;SDS011;17996;51.056;3.656;2022-07-23T15:28:27;12.90;;;5.40;;
27543;SDS011;17996;51.056;3.656;2022-07-23T15:30:53;11.25;;;6.30;;
27543;SDS011;17996;51.056;3.656;2022-07-23T15:33:19;10.80;;;6.25;;